createdAt,value
2022-11-27T00:01:21.587Z,92.59
2022-11-27T00:03:49.018Z,92.22
2022-11-27T00:06:17.793Z,92.69
2022-11-27T00:08:45.175Z,92.28
2022-11-27T00:11:18.297Z,93.01
2022-11-27T00:13:45.293Z,92.71
2022-11-27T00:16:13.254Z,93.17
2022-11-27T00:18:43.321Z,92.73
2022-11-27T00:21:19.150Z,93.36
2022-11-27T00:23:45.845Z,92.58
2022-11-27T00:26:12.858Z,93.10
2022-11-27T00:28:39.575Z,92.96
2022-11-27T00:31:09.066Z,93.04
2022-11-27T00:33:35.712Z,93.05
2022-11-27T00:36:06.444Z,93.55
2022-11-27T00:38:38.455Z,93.46
2022-11-27T00:41:17.793Z,94.26
2022-11-27T00:43:45.437Z,93.85
2022-11-27T00:46:16.924Z,94.39
2022-11-27T00:48:43.624Z,93.96
2022-11-27T00:51:14.083Z,94.66
2022-11-27T00:53:40.691Z,94.40
2022-11-27T00:56:08.176Z,94.59
2022-11-27T00:58:34.725Z,94.10
2022-11-27T01:01:03.816Z,94.27
2022-11-27T01:03:31.682Z,94.07
2022-11-27T01:06:06.062Z,94.20
2022-11-27T01:08:33.813Z,94.11
2022-11-27T01:11:00.777Z,93.77
2022-11-27T01:13:32.626Z,94.00
2022-11-27T01:16:06.290Z,94.57
2022-11-27T01:18:34.314Z,94.47
2022-11-27T01:21:00.784Z,94.51
2022-11-27T01:23:27.598Z,94.34
2022-11-27T01:25:54.639Z,94.35
2022-11-27T01:28:23.432Z,94.45
2022-11-27T01:30:50.950Z,94.53
2022-11-27T01:33:18.212Z,94.53
2022-11-27T01:35:55.078Z,94.88
2022-11-27T01:38:22.173Z,94.28
2022-11-27T01:40:48.809Z,94.08
2022-11-27T01:43:16.206Z,94.41
2022-11-27T01:45:45.256Z,94.17
2022-11-27T01:48:13.432Z,94.47
2022-11-27T01:50:40.550Z,93.85
2022-11-27T01:53:15.687Z,94.20
2022-11-27T01:55:54.996Z,94.25
2022-11-27T01:58:28.147Z,93.71
2022-11-27T02:00:54.885Z,93.43
2022-11-27T02:03:22.080Z,93.92
2022-11-27T02:05:48.631Z,93.46
2022-11-27T02:08:16.839Z,93.45
2022-11-27T02:11:07.823Z,93.99
2022-11-27T02:13:50.294Z,94.07
2022-11-27T02:16:19.722Z,93.37
2022-11-27T02:19:15.554Z,93.73
2022-11-27T02:22:02.286Z,93.77
2022-11-27T02:24:56.558Z,93.74
2022-11-27T02:27:41.459Z,94.27
2022-11-27T02:30:08.430Z,93.04
2022-11-27T02:32:37.809Z,93.50
2022-11-27T02:35:27.876Z,94.16
2022-11-27T02:38:00.928Z,93.92
2022-11-27T02:40:34.701Z,94.04
2022-11-27T02:43:08.916Z,93.69
2022-11-27T02:45:43.270Z,93.78
2022-11-27T02:48:12.192Z,93.39
2022-11-27T02:50:41.541Z,93.07
2022-11-27T02:53:12.681Z,93.42
2022-11-27T02:55:40.560Z,92.78
2022-11-27T02:58:11.898Z,92.82
2022-11-27T03:00:43.285Z,92.27
2022-11-27T03:03:13.103Z,92.27
2022-11-27T03:05:43.517Z,92.17
2022-11-27T03:08:18.995Z,92.17
2022-11-27T03:10:51.608Z,92.49
2022-11-27T03:13:18.509Z,92.57
2022-11-27T03:16:01.043Z,92.82
2022-11-27T03:18:42.887Z,93.03
2022-11-27T03:21:29.544Z,93.41
2022-11-27T03:23:57.520Z,92.09
2022-11-27T03:26:24.081Z,91.95
2022-11-27T03:28:51.824Z,91.77
2022-11-27T03:31:20.443Z,91.73
2022-11-27T03:33:47.270Z,91.22
2022-11-27T03:36:19.362Z,91.42
2022-11-27T03:38:48.902Z,91.08
2022-11-27T03:41:52.804Z,92.15
2022-11-27T03:44:35.706Z,92.40
2022-11-27T03:47:11.207Z,91.36
2022-11-27T03:49:57.856Z,92.19
2022-11-27T03:52:32.846Z,91.88
2022-11-27T03:55:15.120Z,92.17
2022-11-27T03:58:19.180Z,92.13
2022-11-27T04:00:49.125Z,91.36
2022-11-27T04:03:24.076Z,91.88
2022-11-27T04:05:50.796Z,91.58
2022-11-27T04:08:17.605Z,92.00
2022-11-27T04:10:44.216Z,92.28
2022-11-27T04:13:10.851Z,92.57
2022-11-27T04:15:37.274Z,93.08
2022-11-27T04:18:03.827Z,93.50
2022-11-27T04:20:30.419Z,93.92
2022-11-27T04:22:56.841Z,94.20
2022-11-27T04:25:23.503Z,94.93
2022-11-27T04:27:50.488Z,95.15
2022-11-27T04:30:17.832Z,94.98
2022-11-27T04:32:44.253Z,94.55
2022-11-27T04:35:11.433Z,94.37
2022-11-27T04:37:37.832Z,94.23
2022-11-27T04:40:05.436Z,94.24
2022-11-27T04:42:31.891Z,93.88
2022-11-27T04:44:58.425Z,94.26
2022-11-27T04:47:24.980Z,94.24
2022-11-27T04:49:51.381Z,94.36
2022-11-27T04:52:17.881Z,94.52
2022-11-27T04:54:44.296Z,94.70
2022-11-27T04:57:10.764Z,94.91
2022-11-27T04:59:37.993Z,94.76
2022-11-27T05:02:04.750Z,94.81
2022-11-27T05:04:31.201Z,94.85
2022-11-27T05:06:57.647Z,94.92
2022-11-27T05:09:24.138Z,94.81
2022-11-27T05:11:50.656Z,94.46
2022-11-27T05:14:18.028Z,94.77
2022-11-27T05:16:47.162Z,94.43
2022-11-27T05:19:14.366Z,94.41
2022-11-27T05:21:41.777Z,94.67
2022-11-27T05:24:11.170Z,94.83
2022-11-27T05:26:39.571Z,94.67
2022-11-27T05:29:07.630Z,94.85
2022-11-27T05:31:34.630Z,94.51
2022-11-27T05:34:01.494Z,94.27
2022-11-27T05:36:28.546Z,93.84
2022-11-27T05:38:54.985Z,93.66
2022-11-27T05:41:21.611Z,93.59
2022-11-27T05:43:48.212Z,93.55
2022-11-27T05:46:19.925Z,93.39
2022-11-27T05:48:46.435Z,93.20
2022-11-27T05:51:13.573Z,93.27
2022-11-27T05:53:40.132Z,92.98
2022-11-27T05:56:15.376Z,93.26
2022-11-27T05:58:43.687Z,92.65
2022-11-27T06:01:12.517Z,92.70
2022-11-27T06:03:39.186Z,92.67
2022-11-27T06:06:09.953Z,92.60
2022-11-27T06:08:37.642Z,92.63
2022-11-27T06:11:15.802Z,93.13
2022-11-27T06:13:42.833Z,92.42
2022-11-27T06:16:13.931Z,92.42
2022-11-27T06:18:43.378Z,92.34
2022-11-27T06:21:14.676Z,92.43
2022-11-27T06:23:42.718Z,92.49
2022-11-27T06:26:17.336Z,92.24
2022-11-27T06:28:44.737Z,92.40
2022-11-27T06:31:17.875Z,92.28
2022-11-27T06:33:46.141Z,92.02
2022-11-27T06:36:12.700Z,91.85
2022-11-27T06:38:39.322Z,91.67
2022-11-27T06:41:09.193Z,91.75
2022-11-27T06:43:36.407Z,91.56
2022-11-27T06:46:04.524Z,91.66
2022-11-27T06:48:32.731Z,91.69
2022-11-27T06:51:04.658Z,91.60
2022-11-27T06:53:34.321Z,91.87
2022-11-27T06:56:06.645Z,91.71
2022-11-27T06:58:33.088Z,91.89
2022-11-27T07:01:02.105Z,91.84
2022-11-27T07:03:28.812Z,91.88
2022-11-27T07:05:58.047Z,91.85
2022-11-27T07:08:24.574Z,91.73
2022-11-27T07:10:51.032Z,91.88
2022-11-27T07:13:17.447Z,91.80
2022-11-27T07:15:44.159Z,91.93
2022-11-27T07:18:11.399Z,92.06
2022-11-27T07:20:37.874Z,92.24
2022-11-27T07:23:04.324Z,91.86
2022-11-27T07:25:30.831Z,92.07
2022-11-27T07:27:57.254Z,92.21
2022-11-27T07:30:23.784Z,92.50
2022-11-27T07:32:50.177Z,92.60
2022-11-27T07:35:16.715Z,92.74
2022-11-27T07:37:43.130Z,92.67
2022-11-27T07:40:09.785Z,92.88
2022-11-27T07:42:41.481Z,93.15
2022-11-27T07:45:08.911Z,92.82
2022-11-27T07:47:35.367Z,92.75
2022-11-27T07:50:01.920Z,92.87
2022-11-27T07:52:28.346Z,93.06
2022-11-27T07:54:54.935Z,93.07
2022-11-27T07:57:21.363Z,92.92
2022-11-27T07:59:48.022Z,93.20
2022-11-27T08:02:14.945Z,93.20
2022-11-27T08:04:41.769Z,93.17
2022-11-27T08:07:08.651Z,93.33
2022-11-27T08:09:35.234Z,93.27
2022-11-27T08:12:01.693Z,93.28
2022-11-27T08:14:28.159Z,93.54
2022-11-27T08:16:54.812Z,93.54
2022-11-27T08:19:21.684Z,93.78
2022-11-27T08:21:48.158Z,93.70
2022-11-27T08:24:14.608Z,93.89
2022-11-27T08:26:41.051Z,94.12
2022-11-27T08:29:07.694Z,93.92
2022-11-27T08:31:34.546Z,94.15
2022-11-27T08:34:02.190Z,94.07
2022-11-27T08:36:28.762Z,94.10
2022-11-27T08:38:55.988Z,93.80
2022-11-27T08:41:22.493Z,93.80
2022-11-27T08:43:49.252Z,93.43
2022-11-27T08:46:15.985Z,93.35
2022-11-27T08:48:42.486Z,93.10
2022-11-27T08:51:12.382Z,92.94
2022-11-27T08:53:39.209Z,92.69
2022-11-27T08:56:11.740Z,92.83
2022-11-27T08:58:38.265Z,92.60
2022-11-27T09:01:15.583Z,93.16
2022-11-27T09:03:42.199Z,92.63
2022-11-27T09:06:10.821Z,92.58
2022-11-27T09:08:39.070Z,92.59
2022-11-27T09:11:06.326Z,92.66
2022-11-27T09:13:36.658Z,92.82
2022-11-27T09:16:08.648Z,92.86
2022-11-27T09:18:35.279Z,92.65
2022-11-27T09:21:04.732Z,92.60
2022-11-27T09:23:31.785Z,92.15
2022-11-27T09:26:00.139Z,92.34
2022-11-27T09:28:31.407Z,91.89
2022-11-27T09:31:00.644Z,91.63
2022-11-27T09:33:29.310Z,91.56
2022-11-27T09:35:55.949Z,91.30
2022-11-27T09:38:23.792Z,91.56
2022-11-27T09:40:52.251Z,91.98
2022-11-27T09:43:28.448Z,92.35
2022-11-27T09:46:01.384Z,92.91
2022-11-27T09:48:35.935Z,93.23
2022-11-27T09:51:10.006Z,92.96
2022-11-27T09:53:55.890Z,93.39
2022-11-27T09:56:23.029Z,91.14
2022-11-27T09:58:57.324Z,90.18
2022-11-27T10:01:42.082Z,90.44
2022-11-27T10:04:13.863Z,88.73
2022-11-27T10:06:52.315Z,88.90
2022-11-27T10:10:00.109Z,90.37
2022-11-27T10:13:04.844Z,90.38
2022-11-27T10:15:46.524Z,89.49
2022-11-27T10:18:38.898Z,89.48
2022-11-27T10:21:37.271Z,91.15
2022-11-27T10:24:25.692Z,90.62
2022-11-27T10:26:58.022Z,89.84
2022-11-27T10:29:47.223Z,90.90
2022-11-27T10:32:47.231Z,90.34
2022-11-27T10:35:13.651Z,90.72
2022-11-27T10:37:47.121Z,90.35
2022-11-27T10:40:13.708Z,90.49
2022-11-27T10:43:15.250Z,91.97
2022-11-27T10:45:46.284Z,90.84
2022-11-27T10:48:14.376Z,90.71
2022-11-27T10:50:42.425Z,90.90
2022-11-27T10:53:14.814Z,91.47
2022-11-27T10:56:05.965Z,92.34
2022-11-27T10:58:42.680Z,91.64
2022-11-27T11:01:11.758Z,91.22
2022-11-27T11:03:38.321Z,90.97
2022-11-27T11:06:20.669Z,91.00
2022-11-27T11:08:48.097Z,90.24
2022-11-27T11:11:25.819Z,91.39
2022-11-27T11:13:52.682Z,90.33
2022-11-27T11:16:29.430Z,91.08
2022-11-27T11:18:58.787Z,90.50
2022-11-27T11:21:29.748Z,90.61
2022-11-27T11:23:59.947Z,90.31
2022-11-27T11:26:31.633Z,89.93
2022-11-27T11:29:02.316Z,90.14
2022-11-27T11:31:36.880Z,90.08
2022-11-27T11:34:12.580Z,89.14
2022-11-27T11:36:38.985Z,89.20
2022-11-27T11:39:05.467Z,89.54
2022-11-27T11:41:38.711Z,89.56
2022-11-27T11:44:05.377Z,88.70
2022-11-27T11:46:33.741Z,87.43
2022-11-27T11:49:03.244Z,87.63
2022-11-27T11:51:32.881Z,87.56
2022-11-27T11:54:34.290Z,88.85
2022-11-27T11:57:03.083Z,87.34
2022-11-27T11:59:55.056Z,88.35
2022-11-27T12:02:53.454Z,89.34
2022-11-27T12:05:41.222Z,89.09
2022-11-27T12:08:29.458Z,88.18
2022-11-27T12:11:18.378Z,89.00
2022-11-27T12:14:08.110Z,87.36
2022-11-27T12:16:49.241Z,85.94
2022-11-27T12:19:58.031Z,87.24
2022-11-27T12:23:06.023Z,87.32
2022-11-27T12:26:13.880Z,86.44
2022-11-27T12:28:57.503Z,86.22
2022-11-27T12:31:25.649Z,84.70
2022-11-27T12:34:07.020Z,84.96
2022-11-27T12:36:39.925Z,85.21
2022-11-27T12:39:32.537Z,85.57
2022-11-27T12:42:04.269Z,83.62
2022-11-27T12:45:14.632Z,83.69
2022-11-27T12:47:42.397Z,84.10
2022-11-27T12:50:25.784Z,83.69
2022-11-27T12:53:27.389Z,82.24
2022-11-27T12:56:29.715Z,82.98
2022-11-27T12:59:29.879Z,82.44
2022-11-27T13:02:13.346Z,82.46
2022-11-27T13:04:47.068Z,82.33
2022-11-27T13:07:59.931Z,82.75
2022-11-27T13:10:41.001Z,81.85
2022-11-27T13:13:19.474Z,80.42
2022-11-27T13:15:52.252Z,80.94
2022-11-27T13:18:36.693Z,81.69
2022-11-27T13:21:10.680Z,81.39
2022-11-27T13:23:37.249Z,80.40
2022-11-27T13:26:07.241Z,81.08
2022-11-27T13:28:47.477Z,82.21
2022-11-27T13:31:25.788Z,82.36
2022-11-27T13:33:59.626Z,81.65
2022-11-27T13:36:38.895Z,81.88
2022-11-27T13:39:06.360Z,81.19
2022-11-27T13:41:34.745Z,81.02
2022-11-27T13:44:02.604Z,81.11
2022-11-27T13:46:31.742Z,80.56
2022-11-27T13:49:02.763Z,80.22
2022-11-27T13:51:35.191Z,80.85
2022-11-27T13:54:10.784Z,80.37
2022-11-27T13:56:37.841Z,79.66
2022-11-27T13:59:23.834Z,80.76
2022-11-27T14:02:09.078Z,80.41
2022-11-27T14:04:50.624Z,79.48
2022-11-27T14:07:21.404Z,79.39
2022-11-27T14:09:56.374Z,80.22
2022-11-27T14:12:28.027Z,79.58
2022-11-27T14:15:17.469Z,80.48
2022-11-27T14:17:46.326Z,79.91
2022-11-27T14:20:15.873Z,80.11
2022-11-27T14:23:10.577Z,80.49
2022-11-27T14:25:38.901Z,79.70
2022-11-27T14:28:26.255Z,80.75
2022-11-27T14:31:02.343Z,80.33
2022-11-27T14:33:33.177Z,79.88
2022-11-27T14:36:07.466Z,79.47
2022-11-27T14:38:35.350Z,79.67
2022-11-27T14:41:22.706Z,80.25
2022-11-27T14:44:14.711Z,80.50
2022-11-27T14:46:41.760Z,79.62
2022-11-27T14:49:18.436Z,80.37
2022-11-27T14:51:45.616Z,79.60
2022-11-27T14:54:17.034Z,79.74
2022-11-27T14:56:44.485Z,80.02
2022-11-27T14:59:16.227Z,80.26
2022-11-27T15:01:43.053Z,79.96
2022-11-27T15:04:34.740Z,80.88
2022-11-27T15:07:05.164Z,80.09
2022-11-27T15:09:34.234Z,80.28
2022-11-27T15:12:34.569Z,81.30
2022-11-27T15:15:30.460Z,81.24
2022-11-27T15:18:01.654Z,80.97
2022-11-27T15:20:37.229Z,81.54
2022-11-27T15:23:04.632Z,81.23
2022-11-27T15:25:38.740Z,81.97
2022-11-27T15:28:23.527Z,82.23
2022-11-27T15:30:50.358Z,81.21
2022-11-27T15:33:37.029Z,82.47
2022-11-27T15:36:21.919Z,82.45
2022-11-27T15:38:51.139Z,81.23
2022-11-27T15:41:26.510Z,82.21
2022-11-27T15:43:54.149Z,81.67
2022-11-27T15:46:34.323Z,82.07
2022-11-27T15:49:00.716Z,81.66
2022-11-27T15:51:27.172Z,81.87
2022-11-27T15:53:53.572Z,81.83
2022-11-27T15:56:20.730Z,81.71
2022-11-27T15:58:47.248Z,81.90
2022-11-27T16:01:13.708Z,81.63
2022-11-27T16:03:40.703Z,81.56
2022-11-27T16:06:08.562Z,81.55
2022-11-27T16:08:35.165Z,81.55
2022-11-27T16:11:03.587Z,81.68
2022-11-27T16:13:30.088Z,81.57
2022-11-27T16:16:02.007Z,82.02
2022-11-27T16:18:28.885Z,81.36
2022-11-27T16:20:55.715Z,81.18
2022-11-27T16:23:22.164Z,81.33
2022-11-27T16:25:48.643Z,81.21
2022-11-27T16:28:15.161Z,81.34
2022-11-27T16:30:41.796Z,81.11
2022-11-27T16:33:08.265Z,81.22
2022-11-27T16:35:36.435Z,81.38
2022-11-27T16:38:02.924Z,81.38
2022-11-27T16:40:29.596Z,81.10
2022-11-27T16:42:56.039Z,81.27
2022-11-27T16:45:22.535Z,81.31
2022-11-27T16:47:49.141Z,81.48
2022-11-27T16:50:15.658Z,81.17
2022-11-27T16:52:42.118Z,81.31
2022-11-27T16:55:08.949Z,80.98
2022-11-27T16:57:35.371Z,80.97
2022-11-27T17:00:02.198Z,80.87
2022-11-27T17:02:28.853Z,80.50
2022-11-27T17:04:55.975Z,80.45
2022-11-27T17:07:22.489Z,80.71
2022-11-27T17:09:49.221Z,80.37
2022-11-27T17:12:15.969Z,80.44
2022-11-27T17:14:43.770Z,80.40
2022-11-27T17:17:12.966Z,79.64
2022-11-27T17:19:39.966Z,79.63
2022-11-27T17:22:06.784Z,79.79
2022-11-27T17:24:35.759Z,79.53
2022-11-27T17:27:02.747Z,79.62
2022-11-27T17:29:33.466Z,79.59
2022-11-27T17:32:00.515Z,79.52
2022-11-27T17:34:27.049Z,79.50
2022-11-27T17:36:57.312Z,79.49
2022-11-27T17:39:23.617Z,79.91
2022-11-27T17:41:50.147Z,79.04
2022-11-27T17:44:16.549Z,79.43
2022-11-27T17:46:48.029Z,79.41
2022-11-27T17:49:14.442Z,79.48
2022-11-27T17:51:41.314Z,79.49
2022-11-27T17:54:07.793Z,79.42
2022-11-27T17:56:34.932Z,79.21
2022-11-27T17:59:01.855Z,79.25
2022-11-27T18:01:29.649Z,79.28
2022-11-27T18:03:59.770Z,79.18
2022-11-27T18:06:26.663Z,79.11
2022-11-27T18:08:55.193Z,79.63
2022-11-27T18:11:23.481Z,79.60
2022-11-27T18:13:50.492Z,79.36
2022-11-27T18:16:19.788Z,79.88
2022-11-27T18:18:47.334Z,79.42
2022-11-27T18:21:18.741Z,79.48
2022-11-27T18:24:20.659Z,79.43
2022-11-27T18:27:00.566Z,79.60
2022-11-27T18:29:21.760Z,79.53
2022-11-27T18:31:49.297Z,79.68
2022-11-27T18:34:15.757Z,79.51
2022-11-27T18:36:42.165Z,79.50
2022-11-27T18:39:08.557Z,79.46
2022-11-27T18:41:35.102Z,79.71
2022-11-27T18:44:01.712Z,79.52
2022-11-27T18:46:28.361Z,79.85
2022-11-27T18:48:54.922Z,79.76
2022-11-27T18:51:23.917Z,79.88
2022-11-27T18:53:51.459Z,79.97
2022-11-27T18:56:29.330Z,80.03
2022-11-27T18:58:56.500Z,79.91
2022-11-27T19:01:28.663Z,80.35
2022-11-27T19:03:56.240Z,80.06
2022-11-27T19:06:24.921Z,80.08
2022-11-27T19:08:52.182Z,79.84
2022-11-27T19:11:22.306Z,80.42
2022-11-27T19:13:52.193Z,80.20
2022-11-27T19:16:25.036Z,80.63
2022-11-27T19:18:52.450Z,80.51
2022-11-27T19:21:21.853Z,80.24
2022-11-27T19:23:49.557Z,80.60
2022-11-27T19:26:18.925Z,80.74
2022-11-27T19:28:48.999Z,80.88
2022-11-27T19:31:16.330Z,80.59
2022-11-27T19:33:43.580Z,80.85
2022-11-27T19:36:13.525Z,80.64
2022-11-27T19:38:42.347Z,80.67
2022-11-27T19:41:14.311Z,81.33
2022-11-27T19:43:41.018Z,80.77
2022-11-27T19:46:27.262Z,81.75
2022-11-27T19:48:58.649Z,81.36
2022-11-27T19:51:27.149Z,80.73
2022-11-27T19:53:53.970Z,81.13
2022-11-27T19:56:20.695Z,80.90
2022-11-27T19:58:47.208Z,80.96
2022-11-27T20:01:16.413Z,80.84
2022-11-27T20:03:43.614Z,80.83
2022-11-27T20:06:15.388Z,80.97
2022-11-27T20:08:42.960Z,80.92
2022-11-27T20:11:12.239Z,80.74
2022-11-27T20:13:38.710Z,80.77
2022-11-27T20:16:14.662Z,81.60
2022-11-27T20:18:41.643Z,80.81
2022-11-27T20:21:17.078Z,81.34
2022-11-27T20:23:44.749Z,80.51
2022-11-27T20:26:14.893Z,80.85
2022-11-27T20:28:41.816Z,80.73
2022-11-27T20:31:17.246Z,80.81
2022-11-27T20:33:43.757Z,80.64
2022-11-27T20:36:12.284Z,80.79
2022-11-27T20:38:39.487Z,80.48
2022-11-27T20:41:12.135Z,80.58
2022-11-27T20:43:39.113Z,80.80
2022-11-27T20:46:07.586Z,80.72
2022-11-27T20:48:34.122Z,80.40
2022-11-27T20:51:13.697Z,81.18
2022-11-27T20:53:40.907Z,80.50
2022-11-27T20:56:09.115Z,80.54
2022-11-27T20:58:37.031Z,80.44
2022-11-27T21:01:13.914Z,81.46
2022-11-27T21:03:41.003Z,80.37
2022-11-27T21:06:07.733Z,80.65
2022-11-27T21:08:34.311Z,80.38
2022-11-27T21:11:09.699Z,81.18
2022-11-27T21:13:36.511Z,80.20
2022-11-27T21:16:03.033Z,80.45
2022-11-27T21:18:29.499Z,80.30
2022-11-27T21:20:55.892Z,80.44
2022-11-27T21:23:22.331Z,80.75
2022-11-27T21:25:48.869Z,80.41
2022-11-27T21:28:15.261Z,80.42
2022-11-27T21:30:41.652Z,80.67
2022-11-27T21:33:08.078Z,80.71
2022-11-27T21:35:39.103Z,80.45
2022-11-27T21:38:07.994Z,80.76
2022-11-27T21:40:36.741Z,80.58
2022-11-27T21:43:03.272Z,80.21
2022-11-27T21:45:29.709Z,80.41
2022-11-27T21:47:56.289Z,80.83
2022-11-27T21:50:22.721Z,80.64
2022-11-27T21:52:49.155Z,80.28
2022-11-27T21:55:15.603Z,80.60
2022-11-27T21:57:42.049Z,80.34
2022-11-27T22:00:09.005Z,80.69
2022-11-27T22:02:35.514Z,80.62
2022-11-27T22:05:01.987Z,80.24
2022-11-27T22:07:28.467Z,80.30
2022-11-27T22:09:55.192Z,80.21
2022-11-27T22:12:21.629Z,80.27
2022-11-27T22:14:50.201Z,80.41
2022-11-27T22:17:17.083Z,80.20
2022-11-27T22:19:43.552Z,80.33
2022-11-27T22:22:10.052Z,80.28
2022-11-27T22:24:36.751Z,80.26
2022-11-27T22:27:03.261Z,80.15
2022-11-27T22:29:29.760Z,80.40
2022-11-27T22:31:56.203Z,80.27
2022-11-27T22:34:22.644Z,80.01
2022-11-27T22:36:49.105Z,80.00
2022-11-27T22:39:15.626Z,80.42
2022-11-27T22:41:42.816Z,79.95
2022-11-27T22:44:14.031Z,80.12
2022-11-27T22:46:42.304Z,79.94
2022-11-27T22:49:12.334Z,80.24
2022-11-27T22:51:39.255Z,79.92
2022-11-27T22:54:07.854Z,79.95
2022-11-27T22:56:34.263Z,80.13
2022-11-27T22:59:30.505Z,79.93
2022-11-27T23:01:48.521Z,79.77
2022-11-27T23:04:15.475Z,79.83
2022-11-27T23:06:41.951Z,79.53
2022-11-27T23:09:09.656Z,79.41
2022-11-27T23:11:36.071Z,79.40
2022-11-27T23:14:03.317Z,79.34
2022-11-27T23:16:29.824Z,79.18
2022-11-27T23:18:56.281Z,79.11
2022-11-27T23:21:24.705Z,79.11
2022-11-27T23:23:51.778Z,79.22
2022-11-27T23:26:20.365Z,79.27
2022-11-27T23:28:48.981Z,79.08
2022-11-27T23:31:34.078Z,79.03
2022-11-27T23:34:03.079Z,79.16
2022-11-27T23:36:31.353Z,78.82
2022-11-27T23:39:01.958Z,79.38
2022-11-27T23:41:29.191Z,79.10
2022-11-27T23:43:56.285Z,78.55
2022-11-27T23:46:28.316Z,79.08
2022-11-27T23:48:56.776Z,78.95
2022-11-27T23:51:26.197Z,78.75
2022-11-27T23:53:53.616Z,78.89
2022-11-27T23:56:23.165Z,78.71
2022-11-27T23:58:49.974Z,78.55
